createdAt,value
2023-02-27T00:01:38.418Z,99.9
2023-02-27T00:03:38.423Z,99.9
2023-02-27T00:05:38.222Z,99.9
2023-02-27T00:07:40.696Z,99.9
2023-02-27T00:09:40.590Z,99.9
2023-02-27T00:11:40.488Z,99.9
2023-02-27T00:13:46.892Z,99.9
2023-02-27T00:17:42.733Z,99.9
2023-02-27T00:19:45.153Z,99.9
2023-02-27T00:21:45.044Z,99.9
2023-02-27T00:23:44.932Z,99.9
2023-02-27T00:25:47.380Z,99.9
2023-02-27T00:27:47.273Z,99.9
2023-02-27T00:29:47.188Z,99.9
2023-02-27T00:43:30.782Z,99.9
2023-02-27T00:45:30.685Z,99.9
2023-02-27T00:47:33.134Z,99.9
2023-02-27T00:49:33.028Z,99.9
2023-02-27T01:06:26.249Z,99.9
2023-02-27T01:08:26.155Z,99.9
2023-02-27T01:10:26.040Z,99.9
2023-02-27T01:14:28.364Z,99.9
2023-02-27T01:16:28.308Z,99.9
2023-02-27T01:18:30.732Z,99.9
2023-02-27T01:20:30.615Z,99.9
2023-02-27T01:22:30.504Z,99.9
2023-02-27T01:24:32.906Z,99.9
2023-02-27T01:26:32.829Z,99.9
2023-02-27T01:28:32.687Z,99.9
2023-02-27T01:30:35.143Z,99.9
2023-02-27T01:32:35.095Z,99.9
2023-02-27T01:34:34.890Z,99.9
2023-02-27T01:36:37.344Z,99.9
2023-02-27T01:38:37.279Z,99.9
2023-02-27T01:40:37.147Z,99.9
2023-02-27T01:42:39.630Z,99.9
2023-02-27T01:44:39.517Z,99.9
2023-02-27T01:46:39.377Z,99.9
2023-02-27T01:58:10.010Z,99.9
2023-02-27T02:02:09.820Z,99.9
2023-02-27T02:08:11.998Z,99.9
2023-02-27T02:17:03.091Z,99.9
2023-02-27T02:19:02.990Z,99.9
2023-02-27T02:21:03.936Z,99.9
2023-02-27T02:23:05.261Z,99.9
2023-02-27T02:25:05.171Z,99.9
2023-02-27T02:27:05.041Z,99.9
2023-02-27T02:29:07.479Z,99.9
2023-02-27T02:31:07.501Z,99.9
2023-02-27T02:33:07.273Z,99.9
2023-02-27T02:41:11.919Z,99.9
2023-02-27T02:47:14.111Z,99.9
2023-02-27T02:49:13.989Z,99.9
2023-02-27T02:51:13.892Z,99.9
2023-02-27T02:58:19.789Z,99.9
2023-02-27T03:00:19.688Z,99.9
2023-02-27T03:02:22.129Z,99.9
2023-02-27T03:04:22.062Z,99.9
2023-02-27T03:08:24.304Z,99.9
2023-02-27T03:14:26.530Z,99.9
2023-02-27T03:16:26.416Z,99.9
2023-02-27T03:18:26.305Z,99.9
2023-02-27T03:20:28.717Z,99.9
2023-02-27T03:22:28.599Z,99.9
2023-02-27T03:24:28.503Z,99.9
2023-02-27T03:26:30.950Z,99.9
2023-02-27T03:28:30.881Z,99.9
2023-02-27T03:30:30.820Z,99.9
2023-02-27T03:32:33.195Z,99.9
2023-02-27T03:34:33.117Z,99.9
2023-02-27T03:36:32.975Z,99.9
2023-02-27T03:38:35.405Z,99.9
2023-02-27T03:40:35.351Z,99.9
2023-02-27T03:42:35.190Z,99.9
2023-02-27T03:44:37.638Z,99.9
2023-02-27T03:46:37.583Z,99.9
2023-02-27T03:48:37.395Z,99.9
2023-02-27T03:56:44.775Z,99.9
2023-02-27T03:58:44.670Z,99.9
2023-02-27T04:00:47.092Z,99.9
2023-02-27T04:02:46.995Z,99.9
2023-02-27T04:04:46.845Z,99.9
2023-02-27T04:06:49.324Z,99.9
2023-02-27T04:08:49.227Z,99.9
2023-02-27T04:12:51.554Z,99.9
2023-02-27T04:14:51.433Z,99.9
2023-02-27T04:16:51.308Z,99.9
2023-02-27T04:21:56.044Z,99.9
2023-02-27T04:31:58.074Z,99.9
2023-02-27T04:34:00.288Z,99.9
2023-02-27T04:36:00.181Z,99.9
2023-02-27T04:40:02.461Z,99.9
2023-02-27T04:42:02.379Z,99.9
2023-02-27T04:44:02.236Z,99.9
2023-02-27T04:46:04.775Z,99.9
2023-02-27T04:48:04.566Z,99.9
2023-02-27T04:50:04.575Z,99.9
2023-02-27T04:52:06.892Z,99.9
2023-02-27T04:56:06.678Z,99.9
2023-02-27T04:58:09.126Z,99.9
2023-02-27T05:00:08.992Z,99.9
2023-02-27T05:02:11.777Z,99.9
2023-02-27T05:04:11.285Z,99.9
2023-02-27T05:06:11.230Z,99.9
2023-02-27T05:08:11.071Z,99.9
2023-02-27T05:10:13.533Z,99.9
2023-02-27T05:12:13.394Z,99.9
2023-02-27T05:14:13.278Z,99.9
2023-02-27T05:16:15.804Z,99.9
2023-02-27T05:20:15.450Z,99.9
2023-02-27T05:22:17.932Z,99.9
2023-02-27T05:24:20.161Z,99.9
2023-02-27T05:26:17.685Z,99.9
2023-02-27T05:40:24.558Z,99.9
2023-02-27T05:42:24.429Z,99.9
2023-02-27T05:44:24.334Z,99.9
2023-02-27T05:46:26.741Z,99.9
2023-02-27T05:48:26.646Z,99.9
2023-02-27T05:50:26.503Z,99.9
2023-02-27T05:52:28.916Z,99.9
2023-02-27T05:54:28.836Z,99.9
2023-02-27T05:56:29.023Z,99.9
2023-02-27T06:01:27.232Z,99.9
2023-02-27T06:03:27.150Z,99.9
2023-02-27T06:05:26.938Z,99.9
2023-02-27T06:07:29.382Z,99.9
2023-02-27T06:09:29.252Z,99.9
2023-02-27T06:13:31.571Z,99.9
2023-02-27T06:19:33.752Z,99.9
2023-02-27T06:21:33.608Z,99.9
2023-02-27T06:25:35.950Z,99.9
2023-02-27T06:27:35.854Z,99.9
2023-02-27T06:29:35.717Z,99.9
2023-02-27T06:31:38.186Z,99.9
2023-02-27T06:33:38.067Z,99.9
2023-02-27T06:35:38.000Z,99.9
2023-02-27T06:37:40.380Z,99.9
2023-02-27T06:39:40.272Z,99.9
2023-02-27T06:41:40.144Z,99.9
2023-02-27T06:45:42.452Z,99.9
2023-02-27T06:47:42.313Z,99.9
2023-02-27T06:49:44.743Z,99.9
2023-02-27T06:51:45.159Z,99.9
2023-02-27T06:53:44.502Z,99.9
2023-02-27T06:55:46.910Z,99.9
2023-02-27T06:57:46.804Z,99.9
2023-02-27T06:59:46.666Z,99.9
2023-02-27T07:01:49.081Z,99.9
2023-02-27T07:07:51.319Z,99.9
2023-02-27T07:09:51.216Z,99.9
2023-02-27T07:11:51.067Z,99.9
2023-02-27T07:22:57.006Z,99.9
2023-02-27T07:24:56.903Z,99.9
2023-02-27T07:26:56.796Z,99.9
2023-02-27T07:28:59.224Z,99.9
2023-02-27T07:30:59.159Z,99.9
2023-02-27T07:32:58.976Z,99.9
2023-02-27T07:35:01.437Z,99.9
2023-02-27T07:37:01.336Z,99.9
2023-02-27T07:41:03.626Z,99.9
2023-02-27T07:43:03.502Z,99.9
2023-02-27T07:45:03.391Z,99.9
2023-02-27T07:47:05.853Z,99.9
2023-02-27T07:49:05.758Z,99.9
2023-02-27T07:57:07.860Z,99.9
2023-02-27T08:03:10.104Z,99.9
2023-02-27T08:05:12.516Z,99.9
2023-02-27T08:07:12.413Z,99.9
2023-02-27T08:09:12.311Z,99.9
2023-02-27T08:11:14.753Z,99.9
2023-02-27T08:13:14.678Z,99.9
2023-02-27T08:15:14.512Z,99.9
2023-02-27T08:17:16.964Z,99.9
2023-02-27T08:19:16.896Z,99.9
2023-02-27T08:21:16.768Z,99.9
2023-02-27T08:23:32.621Z,99.4
2023-02-27T08:25:32.608Z,97.5
2023-02-27T08:27:32.452Z,93
2023-02-27T08:29:35.817Z,92.9
2023-02-27T08:33:35.618Z,94.9
2023-02-27T08:35:35.570Z,91.7
2023-02-27T08:37:35.433Z,90
2023-02-27T08:39:35.344Z,84.8
2023-02-27T08:41:35.232Z,84.8
2023-02-27T08:49:38.293Z,87.7
2023-02-27T08:53:38.125Z,92.1
2023-02-27T08:55:37.982Z,91.6
2023-02-27T08:59:44.179Z,71.5
2023-02-27T09:01:41.072Z,71.9
2023-02-27T09:03:40.980Z,71.9
2023-02-27T09:05:40.867Z,83.3
2023-02-27T09:07:40.739Z,91.6
2023-02-27T09:09:40.613Z,92.4
2023-02-27T09:11:43.954Z,85
2023-02-27T09:13:43.834Z,84.8
2023-02-27T09:15:43.848Z,91.7
2023-02-27T09:16:45.443Z,92.7
2023-02-27T09:18:45.271Z,93.7
2023-02-27T09:20:45.131Z,93.4
2023-02-27T09:28:47.915Z,91.7
2023-02-27T09:30:47.740Z,91.7
2023-02-27T09:32:47.574Z,91.3
2023-02-27T09:34:47.416Z,91.1
2023-02-27T09:36:47.279Z,91.3
2023-02-27T09:38:50.500Z,90.9
2023-02-27T09:42:50.147Z,92.4
2023-02-27T09:44:49.965Z,93.8
2023-02-27T09:46:49.813Z,93.8
2023-02-27T09:48:49.583Z,94
2023-02-27T09:50:49.404Z,94.1
2023-02-27T09:52:52.659Z,93.6
2023-02-27T09:54:52.381Z,93.1
2023-02-27T09:56:52.287Z,93
2023-02-27T09:58:52.076Z,92.9
2023-02-27T10:00:51.882Z,92.9
2023-02-27T10:02:51.754Z,92.9
2023-02-27T10:04:51.586Z,92.8
2023-02-27T10:06:54.705Z,92.6
2023-02-27T10:08:54.463Z,92.4
2023-02-27T10:10:54.251Z,92.2
2023-02-27T10:13:55.733Z,91.1
2023-02-27T10:17:55.251Z,90.6
2023-02-27T10:19:58.481Z,90.2
2023-02-27T10:21:58.256Z,90.1
2023-02-27T10:25:57.842Z,90.7
2023-02-27T10:27:57.685Z,90.8
2023-02-27T10:29:57.434Z,91
2023-02-27T10:31:57.246Z,91.1
2023-02-27T10:34:00.529Z,91.3
2023-02-27T10:36:02.185Z,91.5
2023-02-27T10:38:00.114Z,91.4
2023-02-27T10:39:59.936Z,91.1
2023-02-27T10:41:59.703Z,89.9
2023-02-27T10:45:59.312Z,87.5
2023-02-27T10:50:02.195Z,86.2
2023-02-27T10:52:02.006Z,83.1
2023-02-27T10:54:01.758Z,74.8
2023-02-27T10:56:01.605Z,60.6
2023-02-27T10:58:01.237Z,60.5
2023-02-27T11:00:00.982Z,60.2
2023-02-27T11:02:04.081Z,58.2
2023-02-27T11:04:03.770Z,57.5
2023-02-27T11:07:05.025Z,56.5
2023-02-27T11:13:04.095Z,55.1
2023-02-27T11:15:07.152Z,54.9
2023-02-27T11:17:06.780Z,54.8
2023-02-27T11:19:06.428Z,54.7
2023-02-27T11:21:06.077Z,54.7
2023-02-27T11:23:05.690Z,54.8
2023-02-27T11:25:05.312Z,55.2
2023-02-27T11:27:04.926Z,56.2
2023-02-27T11:29:07.961Z,53.7
2023-02-27T11:31:07.655Z,53.4
2023-02-27T11:33:07.178Z,52.6
2023-02-27T11:35:06.802Z,52.3
2023-02-27T11:37:06.347Z,52.1
2023-02-27T11:39:05.961Z,52.2
2023-02-27T11:41:05.567Z,52.1
2023-02-27T11:43:08.565Z,53.4
2023-02-27T11:45:08.139Z,53.9
2023-02-27T11:47:07.748Z,54.8
2023-02-27T11:49:07.374Z,62.5
2023-02-27T11:51:06.934Z,62.7
2023-02-27T11:53:06.535Z,61.9
2023-02-27T11:55:06.167Z,54.3
2023-02-27T11:57:09.166Z,54.8
2023-02-27T11:59:08.824Z,55.1
2023-02-27T12:01:08.416Z,55.8
2023-02-27T12:03:29.533Z,60.8
2023-02-27T12:05:29.139Z,61.1
2023-02-27T12:07:28.804Z,61.7
2023-02-27T12:09:31.832Z,62.7
2023-02-27T12:11:31.872Z,63
2023-02-27T12:13:31.169Z,63.5
2023-02-27T12:15:30.777Z,64
2023-02-27T12:17:30.480Z,64.2
2023-02-27T12:19:30.127Z,64.4
2023-02-27T12:21:29.767Z,64.5
2023-02-27T12:23:32.852Z,65.1
2023-02-27T12:25:32.526Z,65.4
2023-02-27T12:27:32.211Z,66.3
2023-02-27T12:29:31.948Z,66.7
2023-02-27T12:31:31.659Z,67.1
2023-02-27T12:35:31.133Z,68
2023-02-27T12:39:33.900Z,69.3
2023-02-27T12:41:33.618Z,69.6
2023-02-27T12:43:33.332Z,70.3
2023-02-27T12:45:33.178Z,64.8
2023-02-27T12:47:32.831Z,64.1
2023-02-27T12:55:35.098Z,67.4
2023-02-27T12:56:36.640Z,68.6
2023-02-27T12:58:36.396Z,68.7
2023-02-27T13:00:37.110Z,68.7
2023-02-27T13:02:35.859Z,68.4
2023-02-27T13:04:38.964Z,67.8
2023-02-27T13:06:38.669Z,67.5
2023-02-27T13:08:38.416Z,67.7
2023-02-27T13:10:38.133Z,67.6
2023-02-27T13:12:37.885Z,68
2023-02-27T13:14:37.584Z,68.1
2023-02-27T13:16:37.390Z,68.2
2023-02-27T13:18:40.482Z,68
2023-02-27T13:20:40.215Z,68
2023-02-27T13:22:39.966Z,68
2023-02-27T13:24:39.685Z,68.5
2023-02-27T13:26:39.423Z,63.5
2023-02-27T13:28:39.166Z,58.2
2023-02-27T13:30:38.983Z,57.5
2023-02-27T13:32:44.327Z,55.1
2023-02-27T13:34:41.874Z,55.1
2023-02-27T13:36:41.650Z,54.8
2023-02-27T13:38:41.292Z,54.8
2023-02-27T13:40:41.035Z,56.3
2023-02-27T13:42:40.783Z,60.2
2023-02-27T13:44:40.465Z,61
2023-02-27T13:46:43.674Z,62.6
2023-02-27T13:48:43.308Z,62.4
2023-02-27T13:50:43.009Z,55.2
2023-02-27T13:55:44.037Z,53.4
2023-02-27T13:57:43.733Z,54.4
2023-02-27T13:59:48.412Z,57.9
2023-02-27T14:01:48.143Z,58.7
2023-02-27T14:03:47.808Z,60.5
2023-02-27T14:05:47.555Z,55.4
2023-02-27T14:07:47.269Z,54.9
2023-02-27T14:09:47.018Z,49.4
2023-02-27T14:11:46.686Z,49.1
2023-02-27T14:13:49.834Z,50.1
2023-02-27T14:15:49.502Z,51
2023-02-27T14:17:50.970Z,51.7
2023-02-27T14:21:48.646Z,51.6
2023-02-27T14:27:51.171Z,62.3
2023-02-27T14:29:50.875Z,62.5
2023-02-27T14:31:50.649Z,63.6
2023-02-27T14:35:50.090Z,64.5
2023-02-27T14:37:49.770Z,66.8
2023-02-27T14:41:52.820Z,59.4
2023-02-27T14:43:52.539Z,57.5
2023-02-27T14:45:52.359Z,55.3
2023-02-27T14:46:53.803Z,51.3
2023-02-27T14:48:53.551Z,51.3
2023-02-27T14:52:53.073Z,50.9
2023-02-27T14:54:56.209Z,50.6
2023-02-27T14:56:55.927Z,50.2
2023-02-27T15:02:55.087Z,49.4
2023-02-27T15:04:54.889Z,49.4
2023-02-27T15:06:54.521Z,49.1
2023-02-27T15:08:57.660Z,49.2
2023-02-27T15:12:57.066Z,49.4
2023-02-27T15:16:56.584Z,49.5
2023-02-27T15:18:56.227Z,49.5
2023-02-27T15:20:55.962Z,49.4
2023-02-27T15:22:59.044Z,50.4
2023-02-27T15:24:58.781Z,52
2023-02-27T15:26:58.482Z,55.8
2023-02-27T15:28:58.222Z,57.8
2023-02-27T15:37:00.640Z,62.4
2023-02-27T15:45:21.713Z,63.1
2023-02-27T15:47:21.471Z,63.1
2023-02-27T15:49:24.699Z,59.8
2023-02-27T15:51:24.650Z,59.3
2023-02-27T15:55:24.040Z,60
2023-02-27T15:57:23.752Z,61.6
2023-02-27T15:59:23.574Z,62.2
2023-02-27T16:01:23.407Z,62.9
2023-02-27T16:03:26.434Z,63.9
2023-02-27T16:07:26.053Z,64.7
2023-02-27T16:09:25.927Z,65.2
2023-02-27T16:11:25.764Z,66.3
2023-02-27T16:19:28.493Z,69.3
2023-02-27T16:25:27.859Z,70.2
2023-02-27T16:27:27.728Z,70.1
2023-02-27T16:29:27.563Z,69.9
2023-02-27T16:31:30.972Z,69.7
2023-02-27T16:35:30.430Z,69.3
2023-02-27T16:36:32.085Z,69.4
2023-02-27T16:38:31.753Z,69.6
2023-02-27T16:40:31.640Z,69.8
2023-02-27T16:42:31.304Z,70.1
2023-02-27T16:44:34.582Z,71
2023-02-27T16:46:34.401Z,71.5
2023-02-27T16:50:33.975Z,72.5
2023-02-27T16:52:33.816Z,72.8
2023-02-27T17:02:36.627Z,74.2
2023-02-27T17:04:36.562Z,74.6
2023-02-27T17:06:36.390Z,75.2
2023-02-27T17:08:36.308Z,75.7
2023-02-27T17:10:36.118Z,76.3
2023-02-27T17:14:39.393Z,78.3
2023-02-27T17:16:39.380Z,78.7
2023-02-27T17:18:39.138Z,79.1
2023-02-27T17:20:39.037Z,79.6
2023-02-27T17:22:38.900Z,80.1
2023-02-27T17:24:38.793Z,80.5
2023-02-27T17:26:42.150Z,81.4
2023-02-27T17:28:41.976Z,81.8
2023-02-27T17:30:41.918Z,82.3
2023-02-27T17:31:43.557Z,83.1
2023-02-27T17:33:43.446Z,83.6
2023-02-27T17:37:43.200Z,84.4
2023-02-27T17:43:46.363Z,85.4
2023-02-27T17:45:46.287Z,85.7
2023-02-27T17:47:46.128Z,86.2
2023-02-27T17:49:46.030Z,86.6
2023-02-27T17:53:49.281Z,88.5
2023-02-27T17:59:48.819Z,90.3
2023-02-27T18:01:48.745Z,91
2023-02-27T18:03:48.600Z,91.7
2023-02-27T18:07:54.012Z,94.2
2023-02-27T18:09:51.729Z,94.6
2023-02-27T18:11:51.594Z,94.9
2023-02-27T18:13:51.458Z,95.4
2023-02-27T18:15:51.388Z,95.8
2023-02-27T18:17:51.232Z,96.4
2023-02-27T18:19:51.165Z,97.2
2023-02-27T18:21:54.553Z,98.1
2023-02-27T18:23:54.427Z,98.6
2023-02-27T18:26:56.058Z,99.4
2023-02-27T18:28:55.912Z,99.6
2023-02-27T18:30:55.843Z,99.7
2023-02-27T18:32:55.705Z,99.8
2023-02-27T18:34:59.077Z,99.9
2023-02-27T18:36:58.981Z,99.9
2023-02-27T18:38:58.874Z,99.9
2023-02-27T18:42:58.650Z,99.9
2023-02-27T18:46:58.464Z,99.9
2023-02-27T18:49:01.848Z,99.9
2023-02-27T18:53:01.651Z,99.9
2023-02-27T18:55:01.538Z,99.9
2023-02-27T18:57:01.440Z,99.9
2023-02-27T18:59:01.364Z,99.9
2023-02-27T19:01:01.250Z,99.9
2023-02-27T19:03:04.756Z,99.9
2023-02-27T19:05:05.432Z,99.9
2023-02-27T19:07:05.310Z,99.9
2023-02-27T19:09:05.214Z,99.9
2023-02-27T19:13:04.996Z,99.9
2023-02-27T19:15:04.904Z,99.9
2023-02-27T19:27:10.325Z,99.9
2023-02-27T19:29:12.738Z,99.9
2023-02-27T19:31:12.761Z,99.9
2023-02-27T19:33:12.505Z,99.9
2023-02-27T19:35:14.932Z,99.9
2023-02-27T19:37:14.829Z,99.9
2023-02-27T19:39:14.758Z,99.9
2023-02-27T19:43:30.358Z,99.9
2023-02-27T19:45:30.253Z,99.9
2023-02-27T19:47:33.647Z,99.9
2023-02-27T19:49:33.569Z,99.9
2023-02-27T19:51:33.443Z,99.9
2023-02-27T19:53:33.390Z,99.9
2023-02-27T19:55:33.280Z,99.9
2023-02-27T19:57:33.186Z,99.9
2023-02-27T19:59:33.080Z,99.9
2023-02-27T20:01:36.445Z,99.9
2023-02-27T20:03:36.460Z,99.9
2023-02-27T20:05:36.254Z,99.9
2023-02-27T20:07:36.166Z,99.9
2023-02-27T20:09:36.070Z,99.9
2023-02-27T20:11:35.977Z,99.9
2023-02-27T20:13:35.878Z,99.9
2023-02-27T20:15:39.277Z,99.9
2023-02-27T20:21:39.038Z,99.9
2023-02-27T20:23:38.882Z,99.9
2023-02-27T20:25:38.794Z,99.9
2023-02-27T20:27:38.694Z,99.9
2023-02-27T20:29:42.094Z,99.9
2023-02-27T20:31:42.033Z,99.9
2023-02-27T20:33:41.913Z,99.9
2023-02-27T20:34:43.610Z,99.9
2023-02-27T20:36:43.511Z,99.9
2023-02-27T20:38:43.415Z,99.9
2023-02-27T20:40:43.350Z,99.9
2023-02-27T20:42:46.698Z,99.9
2023-02-27T20:44:46.642Z,99.9
2023-02-27T20:54:46.114Z,99.9
2023-02-27T21:04:49.351Z,99.9
2023-02-27T21:12:52.248Z,99.9
2023-02-27T21:14:52.171Z,99.9
2023-02-27T21:16:52.039Z,99.9
2023-02-27T21:18:51.938Z,99.9
2023-02-27T21:20:51.838Z,99.9
2023-02-27T21:22:51.722Z,99.9
2023-02-27T21:24:55.109Z,99.9
2023-02-27T21:26:55.014Z,99.9
2023-02-27T21:29:56.613Z,99.9
2023-02-27T21:31:56.549Z,99.9
2023-02-27T21:33:56.426Z,99.9
2023-02-27T21:49:59.137Z,99.9
2023-02-27T21:54:02.437Z,99.9
2023-02-27T21:56:02.336Z,99.9
2023-02-27T21:58:04.108Z,99.9
2023-02-27T22:00:02.233Z,99.9
2023-02-27T22:02:02.145Z,99.9
2023-02-27T22:04:01.969Z,99.9
2023-02-27T22:06:05.339Z,99.9
2023-02-27T22:08:05.273Z,99.9
2023-02-27T22:10:05.146Z,99.9
2023-02-27T22:12:05.088Z,99.9
2023-02-27T22:14:04.953Z,99.9
2023-02-27T22:18:06.473Z,99.9
2023-02-27T22:20:08.169Z,99.9
2023-02-27T22:22:08.057Z,99.9
2023-02-27T22:24:07.986Z,99.9
2023-02-27T22:25:09.668Z,99.9
2023-02-27T22:27:09.572Z,99.9
2023-02-27T22:29:09.477Z,99.9
2023-02-27T22:31:09.474Z,99.9
2023-02-27T22:33:12.769Z,99.9
2023-02-27T22:35:12.691Z,99.9
2023-02-27T22:37:12.566Z,99.9
2023-02-27T22:43:12.274Z,99.9
2023-02-27T22:51:15.388Z,99.9
2023-02-27T22:53:15.278Z,99.9
2023-02-27T22:55:15.209Z,99.9
2023-02-27T22:57:15.073Z,99.9
2023-02-27T22:59:14.973Z,99.9
2023-02-27T23:01:18.415Z,99.9
2023-02-27T23:03:18.264Z,99.9
2023-02-27T23:05:18.160Z,99.9
2023-02-27T23:09:18.058Z,99.9
2023-02-27T23:11:17.852Z,99.9
2023-02-27T23:13:17.788Z,99.9
2023-02-27T23:15:21.212Z,99.9
2023-02-27T23:17:21.049Z,99.9
2023-02-27T23:19:20.948Z,99.9
2023-02-27T23:23:23.326Z,99.9
2023-02-27T23:25:23.232Z,99.9
2023-02-27T23:27:26.510Z,99.9
2023-02-27T23:29:25.582Z,99.9
2023-02-27T23:31:25.559Z,99.9
2023-02-27T23:35:27.870Z,99.9
2023-02-27T23:37:27.722Z,99.9
2023-02-27T23:39:30.181Z,99.9
2023-02-27T23:41:30.443Z,99.9
2023-02-27T23:45:32.538Z,99.9
2023-02-27T23:47:32.425Z,99.9
2023-02-27T23:49:32.308Z,99.9
2023-02-27T23:51:35.149Z,99.9
2023-02-27T23:55:34.553Z,99.9
2023-02-27T23:57:36.958Z,99.9
2023-02-27T23:59:36.921Z,99.9
